Budapest, Hungary

1:28 PM CET on February 09, 2016 (GMT +0100)
Ferihegy | | Change Station
CLOSE
Current Station
Airport
Location: Budapest Ferihegy,
Elevation: 607 ft
Nearby Weather Stations

Elev 607 ft 47.44 °N, 19.26 °E | Updated 28 minutes ago

Scattered Clouds
Scattered Clouds
55 °F
Feels Like 55 °F
N
8
Wind Variable Wind from South

Today
High -- | Low -- °F
--% Chance of Precip.
Yesterday
High -- | Low -- °F
Precip. -- in
Pressure 29.83 in
Visibility 6.2 miles
Clouds Few 3200 ft
Scattered Clouds 4900 ft
Dew Point 48 °F
Humidity 77%
Rainfall 0.00 in
Snow Depth Not available.
6:58 AM 4:56 PM
New Moon, 1% visible
METAR LHBP 091200Z 19007KT 150V220 9999 FEW032 SCT049 13/09 Q1010 NOSIG
Pressure 29.83 in
Visibility 6.2 miles
Clouds Few 3200 ft
Scattered Clouds 4900 ft
Dew Point 48 °F
Humidity 77%
Rainfall 0.00 in
Snow Depth Not available.
6:58 AM 4:56 PM
New Moon, 1% visible
METAR LHBP 091200Z 19007KT 150V220 9999 FEW032 SCT049 13/09 Q1010 NOSIG

10-Day Weather Forecast

Almanac

Astronomy

Feb. 09, 2016 Rise Set
Actual Time
Civil Twilight
Nautical Twilight
Astronomical Twilight
Moon
Length of Visible Light
Length of Day
Tomorrow will be .
, % of the Moon is Illuminated

Today's Extremes

Country Highs Country Lows

Community

WunderPhotos

Upload Photos

1,891,588 photos uploaded!

WunderBlog® & News

Nearby

Air Quality

  Air Quality AQ Index Pollutant
Not available.

Snow Depth

Station Depth Elevation

Earthquake Activity

City Distance Mag. Time & Date
Minimum magnitude displayed is 2.5.

Coastal Water Temperatures

Place Temperature

Stations

Nearby Weather Stations

Station Location Temp. Windchill Dew Point Humidity Wind Precip. Elev Updated Type